Terminal Aerodrome Forecast
Issued by NWS Atlanta, GA

Home | Current Version | Previous Version | Text Only | Print | Product List | Glossary On
Versions: 1 2 3 4 5 6 7 8 9 10 11 12 13 14 15 16 17 18 19 20 21 22 23 24 25 26 27 28 29 30 31 32 33 34 35 36 37 38
481
FTUS42 KFFC 250939 AAC
TAFATL
TAF AMD
KATL 250939Z 2510/2612 29007KT P6SM SCT025 SCT045
      TEMPO 2510/2512 BKN045
     FM251200 30011KT P6SM BKN025
     FM251600 31013G21KT P6SM BKN035
     FM252100 31013G20KT P6SM SCT045
     FM260000 32006KT P6SM SCT250
     FM261100 05003KT P6SM BKN120=

USA.gov is the U.S. government's official web portal to all federal, state and local government web resources and services.